createdAt,value
2019-02-26T04:48:08.169Z,6.88
2019-02-26T04:50:41.385Z,6.86
2019-02-26T04:53:11.243Z,6.92
2019-02-26T04:55:44.734Z,7.03
2019-02-26T04:58:15.597Z,7.04
2019-02-26T05:00:46.450Z,7.15
2019-02-26T05:03:20.049Z,7.23
2019-02-26T05:05:53.714Z,7.32
2019-02-26T05:08:21.432Z,7.40
2019-02-26T05:10:54.227Z,7.38
2019-02-26T05:13:26.517Z,7.39
2019-02-26T05:15:56.803Z,7.20
2019-02-26T05:18:28.545Z,7.36
2019-02-26T05:21:01.917Z,7.52
2019-02-26T05:23:33.624Z,7.54
2019-02-26T05:26:05.638Z,7.56
2019-02-26T05:28:37.783Z,7.55
2019-02-26T05:31:09.752Z,7.60
2019-02-26T05:33:41.171Z,7.69
2019-02-26T05:36:14.259Z,7.72
2019-02-26T05:38:44.003Z,7.73
2019-02-26T05:41:14.508Z,7.77
2019-02-26T05:43:49.289Z,7.79
2019-02-26T05:46:19.494Z,7.81
2019-02-26T05:48:51.187Z,7.78
2019-02-26T05:51:21.860Z,7.78
2019-02-26T05:53:52.421Z,7.87
2019-02-26T05:56:23.935Z,7.86
2019-02-26T05:58:54.501Z,7.96
2019-02-26T06:01:27.251Z,7.83
2019-02-26T06:03:57.273Z,7.79
2019-02-26T06:06:27.762Z,7.91
2019-02-26T06:08:59.858Z,8.01
2019-02-26T06:11:33.236Z,7.96
2019-02-26T06:14:09.057Z,7.96
2019-02-26T06:16:35.454Z,7.95
2019-02-26T06:19:08.518Z,8.01
2019-02-26T06:21:43.992Z,7.99
2019-02-26T06:24:12.365Z,7.90
2019-02-26T06:26:43.604Z,7.93
2019-02-26T06:29:15.061Z,7.84
2019-02-26T06:31:46.988Z,7.87
2019-02-26T06:34:21.448Z,7.89
2019-02-26T06:36:51.464Z,7.93
2019-02-26T06:39:24.567Z,8.01
2019-02-26T06:41:54.890Z,8.05
2019-02-26T06:44:25.438Z,8.11
2019-02-26T06:46:55.950Z,8.19
2019-02-26T06:49:26.890Z,8.15
2019-02-26T06:51:58.744Z,8.13
2019-02-26T06:54:31.798Z,8.24
2019-02-26T06:57:01.669Z,8.15
2019-02-26T06:59:34.936Z,8.24
2019-02-26T07:02:05.695Z,8.24
2019-02-26T07:04:36.214Z,8.24
2019-02-26T07:07:11.470Z,8.30
2019-02-26T07:09:41.455Z,8.39
2019-02-26T07:12:11.592Z,8.50
2019-02-26T07:14:42.122Z,8.41
2019-02-26T07:17:12.652Z,8.45
2019-02-26T07:19:43.182Z,8.57
2019-02-26T07:22:15.948Z,8.61
2019-02-26T07:24:48.275Z,8.59
2019-02-26T07:27:18.207Z,8.46
2019-02-26T07:29:52.179Z,8.54
2019-02-26T07:32:22.132Z,8.45
2019-02-26T07:34:53.330Z,8.56
2019-02-26T07:37:23.896Z,8.49
2019-02-26T07:39:54.375Z,8.33
2019-02-26T07:42:25.146Z,8.42
2019-02-26T07:44:55.662Z,8.63
2019-02-26T07:47:27.148Z,8.51
2019-02-26T07:50:00.763Z,8.63
2019-02-26T07:52:31.288Z,8.63
2019-02-26T07:55:03.715Z,8.51
2019-02-26T07:57:35.168Z,8.54
2019-02-26T08:00:09.063Z,8.59
2019-02-26T08:02:39.712Z,8.62
2019-02-26T08:05:11.270Z,8.68
2019-02-26T08:07:43.860Z,8.79
2019-02-26T08:10:16.985Z,8.92
2019-02-26T08:12:48.173Z,8.87
2019-02-26T08:15:18.734Z,9.09
2019-02-26T08:17:51.237Z,9.22
2019-02-26T08:20:23.056Z,9.08
2019-02-26T08:22:54.221Z,9.16
2019-02-26T08:25:25.868Z,9.33
2019-02-26T08:27:58.641Z,9.43
2019-02-26T08:30:28.560Z,9.43
2019-02-26T08:33:01.940Z,9.42
2019-02-26T08:35:32.579Z,9.41
2019-02-26T08:38:05.648Z,9.72
2019-02-26T08:40:35.597Z,9.73
2019-02-26T08:43:06.225Z,9.59
2019-02-26T08:45:36.853Z,9.55
2019-02-26T08:48:08.611Z,9.68
2019-02-26T08:50:41.379Z,9.98
2019-02-26T08:53:11.518Z,10.20
2019-02-26T08:55:42.045Z,10.58
2019-02-26T08:58:13.603Z,10.70
2019-02-26T09:00:44.141Z,10.61
2019-02-26T09:03:15.661Z,10.49
2019-02-26T09:05:49.266Z,10.71
2019-02-26T09:08:19.417Z,10.79
2019-02-26T09:10:49.995Z,11.17
2019-02-26T09:13:20.542Z,11.17
2019-02-26T09:15:51.109Z,11.10
2019-02-26T09:18:24.545Z,10.94
2019-02-26T09:20:53.915Z,11.17
2019-02-26T09:23:25.894Z,11.32
2019-02-26T09:25:59.701Z,11.09
2019-02-26T09:28:32.008Z,10.86
2019-02-26T09:31:04.733Z,11.15
2019-02-26T09:33:35.595Z,11.50
2019-02-26T09:36:10.526Z,11.46
2019-02-26T09:38:39.958Z,11.56
2019-02-26T09:41:11.785Z,11.50
2019-02-26T09:43:45.345Z,11.29
2019-02-26T09:46:16.924Z,11.33
2019-02-26T09:48:47.974Z,11.37
2019-02-26T09:51:18.504Z,11.18
2019-02-26T09:53:50.058Z,11.16
2019-02-26T09:56:21.308Z,11.02
2019-02-26T09:58:51.823Z,10.75
2019-02-26T10:01:22.374Z,10.57
2019-02-26T10:03:54.168Z,10.76
2019-02-26T10:06:25.164Z,10.81
2019-02-26T10:08:56.171Z,10.89
2019-02-26T10:11:27.969Z,10.83
2019-02-26T10:13:59.731Z,10.74
2019-02-26T10:16:31.220Z,10.99
2019-02-26T10:19:02.732Z,11.09
2019-02-26T10:21:34.853Z,10.97
2019-02-26T10:24:05.457Z,10.74
2019-02-26T10:26:38.297Z,10.88
2019-02-26T10:29:08.237Z,11.01
2019-02-26T10:31:40.988Z,11.07
2019-02-26T10:34:13.332Z,11.00
2019-02-26T10:36:46.359Z,10.97
2019-02-26T10:39:20.095Z,10.90
2019-02-26T10:41:49.198Z,10.79
2019-02-26T10:44:19.716Z,10.37
2019-02-26T10:46:50.451Z,10.42
2019-02-26T10:49:21.192Z,10.40
2019-02-26T10:51:51.796Z,10.38
2019-02-26T10:54:22.447Z,10.40
2019-02-26T10:56:53.689Z,10.40
2019-02-26T10:59:25.274Z,10.40
2019-02-26T11:01:58.418Z,10.44
2019-02-26T11:04:34.811Z,10.45
2019-02-26T11:07:02.377Z,10.58
2019-02-26T11:09:34.586Z,10.62
2019-02-26T11:12:06.365Z,10.87
2019-02-26T11:14:39.582Z,11.15
2019-02-26T11:17:10.060Z,11.29
2019-02-26T11:19:41.789Z,11.32
2019-02-26T11:22:12.518Z,11.65
2019-02-26T11:24:44.467Z,11.64
2019-02-26T11:27:17.191Z,11.49
2019-02-26T11:29:47.417Z,11.63
2019-02-26T11:32:18.028Z,11.73
2019-02-26T11:34:50.299Z,11.91
2019-02-26T11:37:22.540Z,11.88
2019-02-26T11:39:55.053Z,11.83
2019-02-26T11:42:26.241Z,11.92
2019-02-26T11:44:57.541Z,12.03
2019-02-26T11:47:28.070Z,12.06
2019-02-26T11:49:59.684Z,12.20
2019-02-26T11:52:31.195Z,12.19
2019-02-26T11:55:05.774Z,12.37
2019-02-26T11:57:37.008Z,12.42
2019-02-26T12:00:13.900Z,12.39
2019-02-26T12:02:44.463Z,12.16
2019-02-26T12:05:15.104Z,12.19
2019-02-26T12:07:48.784Z,12.31
2019-02-26T12:10:19.340Z,12.25
2019-02-26T12:12:51.535Z,12.41
2019-02-26T12:15:22.100Z,12.43
2019-02-26T12:17:54.144Z,12.74
2019-02-26T12:20:24.853Z,12.90
2019-02-26T12:22:55.603Z,12.92
2019-02-26T12:25:26.326Z,12.65
2019-02-26T12:27:56.835Z,12.64
2019-02-26T12:30:27.712Z,12.63
2019-02-26T12:32:58.917Z,12.54
2019-02-26T12:35:32.507Z,12.45
2019-02-26T12:38:17.287Z,12.37
2019-02-26T12:40:34.061Z,12.44
2019-02-26T12:43:06.543Z,12.40
2019-02-26T12:45:38.679Z,12.42
2019-02-26T12:48:10.297Z,12.42
2019-02-26T12:50:41.538Z,12.55
2019-02-26T12:53:14.985Z,12.73
2019-02-26T12:55:44.352Z,12.83
2019-02-26T12:58:17.757Z,12.52
2019-02-26T13:00:47.175Z,12.47
2019-02-26T13:03:19.640Z,12.54
2019-02-26T13:05:51.774Z,12.41
2019-02-26T13:08:24.101Z,12.48
2019-02-26T13:10:58.217Z,12.59
2019-02-26T13:13:27.280Z,12.65
2019-02-26T13:15:58.015Z,12.60
2019-02-26T13:18:28.545Z,12.59
2019-02-26T13:21:00.493Z,12.64
2019-02-26T13:23:31.327Z,12.65
2019-02-26T13:26:03.866Z,12.81
2019-02-26T13:28:34.149Z,12.88
2019-02-26T13:31:05.668Z,13.00
2019-02-26T13:33:38.528Z,13.13
2019-02-26T13:36:09.219Z,13.23
2019-02-26T13:38:44.742Z,13.20
2019-02-26T13:41:29.002Z,12.99
2019-02-26T13:43:44.707Z,13.07
2019-02-26T13:46:15.234Z,13.24
2019-02-26T13:48:46.902Z,13.11
2019-02-26T13:51:17.526Z,12.90
2019-02-26T13:53:48.056Z,12.83
2019-02-26T13:56:18.587Z,12.78
2019-02-26T13:58:49.327Z,12.83
2019-02-26T14:01:19.815Z,12.68
2019-02-26T14:03:50.389Z,12.58
2019-02-26T14:06:20.919Z,12.48
2019-02-26T14:08:51.545Z,12.45
2019-02-26T14:11:22.076Z,12.44
2019-02-26T14:13:52.608Z,12.37
2019-02-26T14:16:23.176Z,12.25
2019-02-26T14:18:53.765Z,12.14
2019-02-26T14:21:24.289Z,11.90
2019-02-26T14:23:54.823Z,11.86
2019-02-26T14:26:25.352Z,11.87
2019-02-26T14:28:56.007Z,11.78
2019-02-26T14:31:26.622Z,11.65
2019-02-26T14:33:57.157Z,11.59
2019-02-26T14:36:27.683Z,11.58
2019-02-26T14:38:58.285Z,11.57
2019-02-26T14:41:29.154Z,11.48
2019-02-26T14:43:59.713Z,11.48
2019-02-26T14:46:30.634Z,11.40
2019-02-26T14:49:01.117Z,11.31
2019-02-26T14:51:31.732Z,11.24
2019-02-26T14:54:02.332Z,11.18
2019-02-26T14:56:32.950Z,11.19
2019-02-26T14:59:03.442Z,11.18
2019-02-26T15:01:33.974Z,11.16
2019-02-26T15:04:04.464Z,11.14
2019-02-26T15:06:35.079Z,11.11
2019-02-26T15:09:06.144Z,11.00
2019-02-26T15:11:37.365Z,11.00
2019-02-26T15:14:08.111Z,11.01
2019-02-26T15:16:38.757Z,10.99
2019-02-26T15:19:09.373Z,10.95
2019-02-26T15:21:39.921Z,10.87
2019-02-26T15:24:10.782Z,10.84
2019-02-26T15:26:41.371Z,10.82
2019-02-26T15:29:12.000Z,10.81
2019-02-26T15:31:42.509Z,10.80
2019-02-26T15:34:13.130Z,10.75
2019-02-26T15:36:43.761Z,10.68
2019-02-26T15:39:14.291Z,10.62
2019-02-26T15:41:44.819Z,10.58
2019-02-26T15:44:15.252Z,10.54
2019-02-26T15:46:45.914Z,10.54
2019-02-26T15:49:16.522Z,10.52
2019-02-26T15:51:48.782Z,10.49
2019-02-26T15:54:19.285Z,10.48
2019-02-26T15:56:50.146Z,10.41
2019-02-26T15:59:20.750Z,10.31
2019-02-26T16:01:51.240Z,10.27
2019-02-26T16:04:21.812Z,10.23
2019-02-26T16:06:52.343Z,10.19
2019-02-26T16:09:22.875Z,10.14
2019-02-26T16:11:53.363Z,10.09
2019-02-26T16:14:24.105Z,9.95
2019-02-26T16:16:55.595Z,9.86
2019-02-26T16:19:26.336Z,9.75
2019-02-26T16:21:56.867Z,9.64
2019-02-26T16:24:27.397Z,9.55
2019-02-26T16:26:57.929Z,9.44
2019-02-26T16:29:29.582Z,9.34
2019-02-26T16:32:00.219Z,9.25
2019-02-26T16:34:30.847Z,9.17
2019-02-26T16:37:03.264Z,9.08
2019-02-26T16:39:33.755Z,8.99
2019-02-26T16:42:04.242Z,8.94
2019-02-26T16:44:34.820Z,8.86
2019-02-26T16:47:05.396Z,8.78
2019-02-26T16:49:37.482Z,8.74
2019-02-26T16:52:08.161Z,8.67
2019-02-26T16:54:40.925Z,8.64
2019-02-26T16:57:11.059Z,8.58
2019-02-26T16:59:41.685Z,8.53
2019-02-26T17:02:12.215Z,8.47
2019-02-26T17:04:42.846Z,8.43
2019-02-26T17:10:19.485Z,8.40
2019-02-26T17:12:51.612Z,8.31
2019-02-26T17:15:30.126Z,8.23
2019-02-26T17:18:00.768Z,8.20
2019-02-26T17:20:31.495Z,8.17
2019-02-26T17:23:02.137Z,8.18
2019-02-26T17:25:32.763Z,8.12
2019-02-26T17:28:03.297Z,8.10
2019-02-26T17:30:34.033Z,8.04
2019-02-26T17:33:04.515Z,8.03
2019-02-26T17:35:35.100Z,8.00
2019-02-26T17:38:05.743Z,7.95
2019-02-26T17:40:36.620Z,7.96
2019-02-26T17:43:08.845Z,7.97
2019-02-26T17:45:39.372Z,7.91
2019-02-26T17:48:09.857Z,7.84
2019-02-26T17:50:43.354Z,7.81
2019-02-26T17:53:14.132Z,7.78
2019-02-26T17:55:44.677Z,7.76
2019-02-26T17:58:15.292Z,7.75
2019-02-26T18:00:47.568Z,7.75
2019-02-26T18:03:18.097Z,7.71
2019-02-26T18:05:51.589Z,7.70
2019-02-26T18:08:21.102Z,7.68
2019-02-26T18:10:51.634Z,7.62
2019-02-26T18:13:22.274Z,7.58
2019-02-26T18:15:56.036Z,7.55
2019-02-26T18:18:25.067Z,7.55
2019-02-26T18:20:55.710Z,7.50
2019-02-26T18:23:26.240Z,7.45
2019-02-26T18:25:56.771Z,7.43
2019-02-26T18:28:27.497Z,7.36
2019-02-26T18:30:58.108Z,7.31
2019-02-26T18:33:28.865Z,7.28
2019-02-26T18:35:59.507Z,7.27
2019-02-26T18:38:30.038Z,7.15
2019-02-26T18:41:01.288Z,7.10
2019-02-26T18:43:32.943Z,7.05
2019-02-26T18:46:03.512Z,7.00
2019-02-26T18:48:34.202Z,6.95
2019-02-26T18:51:04.844Z,6.91
